• Join FlightAware (Why Join?)
  • Login
  • US Flag 
04:16AM EDT


 

Airport Tracker/Info


-or-


 

Live Flight TrackerFlight Track Log ✈ UAL5848 ✈ 03-May-2013 ✈ KORD - KGRR

Flight Track Log - Related Links

Times and Time Zones

All times are in EDT time to prevent confusion due to time zone crossing. See the UAL5848 flight status page for this flight to view local times or setup timezone preferences in your user account.

Time Position Orientation Groundspeed Altitude Reporting Facility
EDT Latitude Longitude Course Direction KTS MPH feet Rate Location/Type
09:45PM 42.1312 -87.4464 65° Northeast  Level FlightAware Approximate
09:46PM 42.1849 -87.2901 65° Northeast  Level FlightAware Approximate
09:47PM 42.2383 -87.1335 65° Northeast  Level FlightAware Approximate
09:48PM 42.2690 -86.9694 87° East  Level FlightAware Approximate
09:49PM 42.2751 -86.7970 87° East  Level FlightAware Approximate
09:50PM 42.2809 -86.6245 87° East  Level FlightAware Approximate
09:51PM 42.2870 -86.4521 87° East  Level FlightAware Approximate
09:52PM 42.2932 -86.2797 87° East  Level FlightAware Approximate
09:53PM 42.2992 -86.1072 87° East  Level FlightAware Approximate
09:54PM 42.3203 -85.9384 86° East  Level FlightAware Approximate
09:55PM 42.3282 -85.7660 86° East  Level FlightAware Approximate
09:56PM 42.3750 -85.6479 10° North  Level FlightAware Approximate
09:57PM 42.5005 -85.6162 36° Northeast  Level FlightAware Approximate
09:58PM 42.6225 -85.5736 10° North  Level FlightAware Approximate
09:59PM 42.7481 -85.5471 North  Level FlightAware Approximate
10:00PM 42.8667 -85.5167 14° North  Level FlightAware Approximate
10:01PM 42.8808 -85.5228 14° North  Level Estimated
10:02PM 42.8808 -85.5228 14° North  Level Estimated
10:03PM 42.8808 -85.5228 14° North  Level Estimated
10:04PM 42.8808 -85.5228 14° North  Level Estimated
10:05PM 42.8808 -85.5228 14° North  Level Estimated
10:06PM 42.8808 -85.5228 14° North  Level Estimated
10:07PM 42.8808 -85.5228 14° North  Level Estimated
10:08PM 42.8808 -85.5228 14° North  Level Estimated
10:09PM 42.8808 -85.5228 14° North  Level Estimated
10:10PM 42.8808 -85.5228 14° North  Level Estimated